KSIK/SIK METAR and TAF weather

Enter ICAO airport designator
Station Type Date Time Source
KSIK METAR 2020/07/10 00:35 UTC NOAA

KSIK 100035Z AUTO 21007KT 10SM CLR 31/25 A2983 RMK AO2


Station Type Date Time Source
KSIK Decoded METAR 2020/07/10 00:35 UTC NOAA

Station name not available
Jul 09, 2020 - 08:35 PM EDT / 2020.07.10 0035 UTC
Wind: from the SSW (210 degrees) at 8 MPH (7 KT):0
Visibility: 10 mile(s):0
Sky conditions: clear
Temperature: 87 F (31 C)
Heat index: 97.5 F (36.4 C):1
Dew Point: 77 F (25 C)
Relative Humidity: 70%
Pressure (altimeter): 29.83 in. Hg (1010 hPa)
ob: KSIK 100035Z AUTO 21007KT 10SM CLR 31/25 A2983 RMK AO2
cycle: 0

Station Type Date Time Source
KSIK TAF UTC NOAA

Error!

Example: see airport list